createdAt,value
2018-04-16T00:00:18.566Z,11.77
2018-04-16T00:02:46.149Z,10.97
2018-04-16T00:05:13.741Z,11.00
2018-04-16T00:07:41.322Z,13.30
2018-04-16T00:10:08.907Z,12.57
2018-04-16T00:12:36.489Z,12.50
2018-04-16T00:15:04.073Z,13.20
2018-04-16T00:17:31.656Z,13.20
2018-04-16T00:19:59.236Z,12.50
2018-04-16T00:22:26.820Z,11.53
2018-04-16T00:24:54.438Z,13.37
2018-04-16T00:27:22.829Z,13.77
2018-04-16T00:29:50.416Z,12.60
2018-04-16T00:32:24.642Z,13.67
2018-04-16T00:34:57.833Z,14.70
2018-04-16T00:37:32.057Z,12.87
2018-04-16T00:43:04.343Z,13.47
2018-04-16T00:45:37.534Z,17.40
2018-04-16T00:48:10.779Z,16.60
2018-04-16T00:50:44.069Z,16.60
2018-04-16T00:53:17.243Z,16.83
2018-04-16T00:55:50.424Z,14.60
2018-04-16T00:58:23.650Z,17.23
2018-04-16T01:00:56.837Z,16.80
2018-04-16T01:03:30.266Z,15.97
2018-04-16T01:06:03.397Z,17.77
2018-04-16T01:08:36.589Z,18.17
2018-04-16T01:11:09.833Z,16.93
2018-04-16T01:13:42.981Z,17.40
2018-04-16T01:16:16.293Z,18.10
2018-04-16T01:18:49.409Z,17.60
2018-04-16T01:21:22.717Z,17.70
2018-04-16T01:23:56.123Z,17.33
2018-04-16T01:26:29.461Z,19.77
2018-04-16T01:29:02.810Z,18.03
2018-04-16T01:31:36.025Z,19.13
2018-04-16T01:34:09.321Z,19.37
2018-04-16T01:36:42.432Z,19.83
2018-04-16T01:39:15.685Z,19.97
2018-04-16T01:41:48.945Z,18.53
2018-04-16T01:44:22.257Z,20.40
2018-04-16T01:46:55.654Z,20.10
2018-04-16T01:49:28.917Z,19.80
2018-04-16T01:52:02.090Z,19.50
2018-04-16T01:54:35.377Z,19.80
2018-04-16T01:57:08.574Z,20.70
2018-04-16T01:59:41.765Z,18.60
2018-04-16T02:02:14.957Z,19.10
2018-04-16T02:04:48.154Z,20.07
2018-04-16T02:07:21.341Z,20.03
2018-04-16T02:09:54.501Z,20.07
2018-04-16T02:12:27.749Z,19.53
2018-04-16T02:15:00.934Z,19.20
2018-04-16T02:17:33.932Z,20.50
2018-04-16T02:20:07.101Z,20.40
2018-04-16T02:22:40.335Z,17.37
2018-04-16T02:25:13.485Z,20.20
2018-04-16T02:30:50.830Z,20.27
2018-04-16T02:33:24.017Z,20.60
2018-04-16T02:35:58.062Z,20.77
2018-04-16T02:38:31.176Z,18.37
2018-04-16T02:41:04.445Z,19.23
2018-04-16T02:43:37.620Z,19.67
2018-04-16T02:46:10.805Z,20.07
2018-04-16T02:48:43.925Z,18.80
2018-04-16T02:51:17.166Z,20.13
2018-04-16T02:53:50.457Z,20.50
2018-04-16T02:59:24.277Z,21.00
2018-04-16T03:01:57.597Z,21.60
2018-04-16T03:04:30.882Z,20.00
2018-04-16T03:07:04.169Z,18.70
2018-04-16T03:09:37.565Z,20.93
2018-04-16T03:12:10.734Z,20.00
2018-04-16T03:14:44.005Z,20.60
2018-04-16T03:17:17.204Z,21.37
2018-04-16T03:19:50.541Z,20.33
2018-04-16T03:22:23.758Z,19.93
2018-04-16T03:24:56.925Z,21.67
2018-04-16T03:27:30.019Z,21.77
2018-04-16T03:30:03.214Z,23.17
2018-04-16T03:32:36.532Z,22.23
2018-04-16T03:35:09.841Z,20.73
2018-04-16T03:37:43.161Z,22.43
2018-04-16T03:40:16.245Z,22.43
2018-04-16T03:42:49.401Z,20.43
2018-04-16T03:45:22.570Z,22.60
2018-04-16T03:47:55.754Z,21.50
2018-04-16T03:50:29.002Z,20.30
2018-04-16T03:53:02.117Z,21.13
2018-04-16T03:55:35.307Z,20.20
2018-04-16T03:58:02.901Z,22.57
2018-04-16T04:00:30.502Z,22.90
2018-04-16T04:02:58.114Z,21.00
2018-04-16T04:05:25.725Z,22.60
2018-04-16T04:07:53.306Z,21.90
2018-04-16T04:10:20.918Z,19.60
2018-04-16T04:12:49.393Z,21.10
2018-04-16T04:15:17.756Z,19.97
2018-04-16T04:17:46.190Z,21.47
2018-04-16T04:20:13.826Z,25.70
2018-04-16T04:22:53.198Z,20.93
2018-04-16T04:25:32.513Z,20.93
2018-04-16T04:28:11.781Z,22.40
2018-04-16T04:30:39.393Z,21.87
2018-04-16T04:33:06.972Z,21.73
2018-04-16T04:35:34.581Z,20.87
2018-04-16T04:38:02.993Z,21.23
2018-04-16T04:40:31.475Z,22.80
2018-04-16T04:42:59.867Z,20.90
2018-04-16T04:45:28.274Z,21.53
2018-04-16T04:47:56.794Z,23.57
2018-04-16T04:50:25.237Z,22.80
2018-04-16T04:52:53.757Z,24.53
2018-04-16T04:55:21.336Z,23.80
2018-04-16T04:57:48.920Z,24.87
2018-04-16T05:00:16.532Z,24.70
2018-04-16T05:02:44.217Z,23.63
2018-04-16T05:05:12.647Z,24.73
2018-04-16T05:07:41.777Z,25.10
2018-04-16T05:10:10.222Z,25.60
2018-04-16T05:12:38.610Z,26.43
2018-04-16T05:15:06.194Z,27.07
2018-04-16T05:17:33.825Z,25.47
2018-04-16T05:20:01.417Z,30.47
2018-04-16T05:22:29.050Z,28.77
2018-04-16T05:24:56.684Z,26.43
2018-04-16T05:27:24.265Z,27.53
2018-04-16T05:29:51.891Z,25.00
2018-04-16T05:32:19.570Z,28.77
2018-04-16T05:34:47.150Z,25.60
2018-04-16T05:37:15.517Z,25.80
2018-04-16T05:39:44.022Z,27.00
2018-04-16T05:42:11.607Z,27.73
2018-04-16T05:44:39.264Z,27.90
2018-04-16T05:47:06.846Z,24.50
2018-04-16T05:49:34.424Z,26.70
2018-04-16T05:52:02.001Z,27.27
2018-04-16T05:54:29.629Z,28.97
2018-04-16T05:56:57.265Z,29.13
2018-04-16T05:59:24.858Z,29.20
2018-04-16T06:01:52.443Z,29.17
2018-04-16T06:04:20.880Z,27.83
2018-04-16T06:06:48.469Z,29.17
2018-04-16T06:09:16.100Z,28.23
2018-04-16T06:11:43.766Z,29.67
2018-04-16T06:14:12.132Z,29.07
2018-04-16T06:16:39.712Z,30.17
2018-04-16T06:19:07.301Z,30.13
2018-04-16T06:21:34.914Z,31.10
2018-04-16T06:24:02.500Z,29.00
2018-04-16T06:26:30.085Z,29.87
2018-04-16T06:28:57.833Z,28.87
2018-04-16T06:31:25.413Z,32.70
2018-04-16T06:33:53.021Z,28.70
2018-04-16T06:36:21.415Z,32.60
2018-04-16T06:38:52.392Z,30.90
2018-04-16T06:41:19.970Z,29.53
2018-04-16T06:43:47.585Z,29.83
2018-04-16T06:46:16.061Z,30.60
2018-04-16T06:48:43.685Z,28.70
2018-04-16T06:51:12.061Z,31.27
2018-04-16T06:53:39.642Z,30.23
2018-04-16T06:56:08.153Z,31.10
2018-04-16T06:58:35.781Z,31.47
2018-04-16T07:01:04.219Z,31.80
2018-04-16T07:03:31.848Z,29.50
2018-04-16T07:05:59.471Z,29.43
2018-04-16T07:08:27.876Z,29.60
2018-04-16T07:10:55.561Z,27.97
2018-04-16T07:13:23.922Z,28.67
2018-04-16T07:15:52.314Z,28.80
2018-04-16T07:18:19.904Z,29.43
2018-04-16T07:20:49.924Z,30.60
2018-04-16T07:23:18.785Z,32.53
2018-04-16T07:25:47.218Z,31.90
2018-04-16T07:28:15.808Z,30.90
2018-04-16T07:30:44.336Z,29.77
2018-04-16T07:33:11.929Z,31.40
2018-04-16T07:35:40.458Z,30.30
2018-04-16T07:38:08.099Z,29.50
2018-04-16T07:40:36.664Z,29.90
2018-04-16T07:43:04.289Z,32.37
2018-04-16T07:45:31.873Z,30.40
2018-04-16T07:47:59.518Z,29.77
2018-04-16T07:50:29.234Z,31.73
2018-04-16T07:52:56.817Z,30.70
2018-04-16T07:55:24.401Z,29.23
2018-04-16T07:57:51.980Z,32.30
2018-04-16T08:00:19.560Z,33.40
2018-04-16T08:02:47.182Z,31.43
2018-04-16T08:05:15.574Z,32.27
2018-04-16T08:07:43.227Z,32.57
2018-04-16T08:10:11.611Z,32.50
2018-04-16T08:12:40.017Z,34.37
2018-04-16T08:15:07.702Z,36.03
2018-04-16T08:17:35.326Z,32.23
2018-04-16T08:20:02.936Z,32.67
2018-04-16T08:22:30.521Z,31.40
2018-04-16T08:24:58.110Z,33.30
2018-04-16T08:27:26.629Z,34.47
2018-04-16T08:29:54.258Z,32.07
2018-04-16T08:32:21.890Z,35.27
2018-04-16T08:34:49.673Z,32.30
2018-04-16T08:37:17.298Z,33.80
2018-04-16T08:39:45.730Z,34.53
2018-04-16T08:42:14.244Z,32.97
2018-04-16T08:44:41.909Z,32.97
2018-04-16T08:47:09.498Z,34.17
2018-04-16T08:49:37.136Z,32.90
2018-04-16T08:52:04.730Z,34.67
2018-04-16T08:54:32.323Z,31.37
2018-04-16T08:57:00.820Z,32.43
2018-04-16T08:59:28.457Z,32.13
2018-04-16T09:01:56.045Z,34.27
2018-04-16T09:04:23.674Z,32.10
2018-04-16T09:06:51.269Z,30.17
2018-04-16T09:09:19.752Z,31.50
2018-04-16T09:11:47.507Z,31.70
2018-04-16T09:14:15.098Z,33.10
2018-04-16T09:16:42.683Z,33.63
2018-04-16T09:19:10.297Z,31.43
2018-04-16T09:21:37.881Z,31.70
2018-04-16T09:24:05.472Z,30.63
2018-04-16T09:26:33.054Z,33.50
2018-04-16T09:29:01.570Z,31.30
2018-04-16T09:31:29.151Z,32.17
2018-04-16T09:33:56.740Z,31.60
2018-04-16T09:36:24.325Z,30.97
2018-04-16T09:38:51.934Z,33.57
2018-04-16T09:41:19.529Z,30.33
2018-04-16T09:43:48.074Z,30.80
2018-04-16T09:46:16.550Z,32.50
2018-04-16T09:48:44.153Z,32.83
2018-04-16T09:51:11.744Z,31.90
2018-04-16T09:53:39.498Z,30.60
2018-04-16T09:56:07.453Z,32.90
2018-04-16T09:58:35.096Z,29.70
2018-04-16T10:01:03.180Z,30.93
2018-04-16T10:03:32.372Z,32.07
2018-04-16T10:06:00.827Z,30.07
2018-04-16T10:08:29.661Z,31.17
2018-04-16T10:10:57.647Z,32.33
2018-04-16T10:13:25.233Z,33.17
2018-04-16T10:15:52.817Z,29.60
2018-04-16T10:18:20.431Z,30.23
2018-04-16T10:20:48.013Z,31.90
2018-04-16T10:23:16.226Z,32.70
2018-04-16T10:25:43.881Z,32.20
2018-04-16T10:28:11.465Z,33.23
2018-04-16T10:30:39.137Z,33.07
2018-04-16T10:33:06.745Z,31.83
2018-04-16T10:35:34.332Z,32.77
2018-04-16T10:38:01.915Z,30.00
2018-04-16T10:40:29.548Z,31.97
2018-04-16T10:42:57.114Z,32.63
2018-04-16T10:45:26.513Z,31.17
2018-04-16T10:47:54.093Z,30.40
2018-04-16T10:50:22.538Z,28.80
2018-04-16T10:52:50.898Z,29.43
2018-04-16T10:55:19.480Z,30.60
2018-04-16T10:57:47.185Z,29.87
2018-04-16T11:00:14.845Z,27.77
2018-04-16T11:02:42.508Z,28.50
2018-04-16T11:05:10.100Z,29.30
2018-04-16T11:07:38.126Z,26.10
2018-04-16T11:10:06.626Z,25.37
2018-04-16T11:12:34.253Z,28.60
2018-04-16T11:15:01.855Z,27.63
2018-04-16T11:17:29.487Z,27.53
2018-04-16T11:19:57.173Z,28.60
2018-04-16T11:22:24.837Z,28.57
2018-04-16T11:24:52.453Z,25.60
2018-04-16T11:27:20.116Z,27.60
2018-04-16T11:29:47.701Z,26.17
2018-04-16T11:32:16.392Z,27.73
2018-04-16T11:34:44.013Z,26.70
2018-04-16T11:37:12.409Z,26.23
2018-04-16T11:39:40.954Z,24.57
2018-04-16T11:42:08.597Z,25.20
2018-04-16T11:44:36.178Z,26.77
2018-04-16T11:47:03.822Z,26.47
2018-04-16T11:49:31.489Z,25.23
2018-04-16T11:51:59.154Z,25.63
2018-04-16T11:54:26.781Z,24.10
2018-04-16T11:56:54.370Z,25.60
2018-04-16T11:59:21.986Z,23.57
2018-04-16T12:01:49.577Z,25.00
2018-04-16T12:04:17.229Z,25.10
2018-04-16T12:06:44.781Z,24.33
2018-04-16T12:09:12.408Z,25.10
2018-04-16T12:11:39.991Z,25.87
2018-04-16T12:14:07.608Z,25.23
2018-04-16T12:16:35.353Z,22.43
2018-04-16T12:19:02.920Z,23.00
2018-04-16T12:21:30.501Z,23.70
2018-04-16T12:23:58.157Z,24.87
2018-04-16T12:26:25.741Z,25.27
2018-04-16T12:28:54.033Z,25.33
2018-04-16T12:31:22.326Z,23.73
2018-04-16T12:33:49.936Z,22.97
2018-04-16T12:36:17.594Z,22.83
2018-04-16T12:38:45.189Z,23.20
2018-04-16T12:41:12.805Z,24.43
2018-04-16T12:43:40.390Z,23.13
2018-04-16T12:46:07.974Z,24.40
2018-04-16T12:48:35.555Z,23.90
2018-04-16T12:51:03.146Z,21.50
2018-04-16T12:53:32.944Z,22.10
2018-04-16T12:56:00.526Z,21.27
2018-04-16T12:58:28.109Z,22.33
2018-04-16T13:00:55.689Z,20.03
2018-04-16T13:03:23.270Z,22.50
2018-04-16T13:05:50.866Z,21.97
2018-04-16T13:08:18.469Z,22.60
2018-04-16T13:10:46.045Z,21.40
2018-04-16T13:13:13.626Z,23.20
2018-04-16T13:15:42.025Z,21.20
2018-04-16T13:18:09.609Z,20.60
2018-04-16T13:20:38.137Z,21.10
2018-04-16T13:23:05.749Z,20.40
2018-04-16T13:25:33.422Z,21.00
2018-04-16T13:28:01.037Z,21.93
2018-04-16T13:30:28.626Z,20.07
2018-04-16T13:32:56.209Z,19.03
2018-04-16T13:35:23.861Z,17.70
2018-04-16T13:37:51.446Z,19.03
2018-04-16T13:40:19.089Z,19.47
2018-04-16T13:42:46.681Z,19.33
2018-04-16T13:45:14.262Z,18.80
2018-04-16T13:47:41.842Z,17.23
2018-04-16T13:50:10.275Z,20.00
2018-04-16T13:52:37.916Z,17.97
2018-04-16T13:55:05.529Z,17.37
2018-04-16T13:57:33.816Z,16.07
2018-04-16T14:00:02.278Z,18.20
2018-04-16T14:02:29.863Z,16.77
2018-04-16T14:04:57.443Z,17.43
2018-04-16T14:07:25.025Z,16.33
2018-04-16T14:09:52.606Z,14.87
2018-04-16T14:12:20.978Z,16.33
2018-04-16T14:14:48.559Z,16.03
2018-04-16T14:17:16.142Z,15.80
2018-04-16T14:19:43.729Z,15.30
2018-04-16T14:22:11.406Z,15.60
2018-04-16T14:24:39.001Z,16.20
2018-04-16T14:27:06.628Z,15.63
2018-04-16T14:29:34.227Z,14.17
2018-04-16T14:32:01.830Z,16.40
2018-04-16T14:34:29.415Z,16.00
2018-04-16T14:36:57.798Z,16.20
2018-04-16T14:39:25.385Z,16.00
2018-04-16T14:41:53.017Z,15.40
2018-04-16T14:44:20.577Z,16.50
2018-04-16T14:46:48.159Z,17.67
2018-04-16T14:49:15.837Z,17.03
2018-04-16T14:51:43.454Z,18.97
2018-04-16T14:54:11.133Z,18.93
2018-04-16T14:56:38.726Z,17.40
2018-04-16T14:59:06.352Z,18.80
2018-04-16T15:01:34.042Z,23.60
2018-04-16T15:04:01.627Z,21.10
2018-04-16T15:06:29.212Z,20.87
2018-04-16T15:08:56.793Z,21.87
2018-04-16T15:11:24.381Z,22.23
2018-04-16T15:13:52.022Z,23.37
2018-04-16T15:16:19.614Z,21.33
2018-04-16T15:18:47.199Z,23.50
2018-04-16T15:21:14.809Z,22.27
2018-04-16T15:23:42.400Z,25.00
2018-04-16T15:26:09.987Z,26.00
2018-04-16T15:28:37.588Z,25.37
2018-04-16T15:31:05.232Z,26.90
2018-04-16T15:33:32.847Z,25.63
2018-04-16T15:36:00.429Z,25.87
2018-04-16T15:38:28.013Z,27.90
2018-04-16T15:40:55.596Z,26.10
2018-04-16T15:43:23.183Z,26.93
2018-04-16T15:45:50.769Z,26.27
2018-04-16T15:48:18.354Z,28.93
2018-04-16T15:50:46.032Z,27.17
2018-04-16T15:53:13.659Z,31.43
2018-04-16T15:55:41.246Z,31.20
2018-04-16T15:58:08.841Z,28.00
2018-04-16T16:00:37.337Z,27.93
2018-04-16T16:03:04.923Z,30.13
2018-04-16T16:05:32.613Z,31.53
2018-04-16T16:08:00.202Z,28.00
2018-04-16T16:10:27.809Z,31.47
2018-04-16T16:12:55.389Z,30.27
2018-04-16T16:15:22.995Z,28.17
2018-04-16T16:17:50.594Z,31.30
2018-04-16T16:20:18.177Z,33.03
2018-04-16T16:22:45.771Z,30.30
2018-04-16T16:25:13.360Z,31.47
2018-04-16T16:27:40.941Z,34.57
2018-04-16T16:30:08.635Z,32.30
2018-04-16T16:32:36.290Z,31.47
2018-04-16T16:35:03.886Z,32.20
2018-04-16T16:37:31.472Z,33.67
2018-04-16T16:39:59.058Z,34.00
2018-04-16T16:42:26.742Z,33.57
2018-04-16T16:44:54.330Z,32.30
2018-04-16T16:47:21.917Z,34.90
2018-04-16T16:49:49.530Z,36.97
2018-04-16T16:52:17.899Z,33.53
2018-04-16T16:54:45.494Z,33.73
2018-04-16T16:57:13.137Z,33.70
2018-04-16T16:59:40.789Z,34.53
2018-04-16T17:02:08.381Z,36.10
2018-04-16T17:04:35.970Z,39.63
2018-04-16T17:07:03.553Z,35.43
2018-04-16T17:09:31.240Z,36.90
2018-04-16T17:11:58.905Z,38.70
2018-04-16T17:14:26.482Z,38.07
2018-04-16T17:16:54.073Z,37.10
2018-04-16T17:19:22.479Z,39.23
2018-04-16T17:21:50.887Z,38.90
2018-04-16T17:24:18.470Z,40.97
2018-04-16T17:26:46.060Z,42.90
2018-04-16T17:29:13.646Z,40.47
2018-04-16T17:31:41.439Z,40.53
2018-04-16T17:34:09.097Z,44.10
2018-04-16T17:36:36.695Z,44.57
2018-04-16T17:39:04.293Z,40.80
2018-04-16T17:41:31.884Z,43.83
2018-04-16T17:43:59.465Z,41.70
2018-04-16T17:46:27.083Z,47.13
2018-04-16T17:48:55.540Z,45.53
2018-04-16T17:51:23.186Z,45.10
2018-04-16T17:53:50.801Z,45.37
2018-04-16T17:56:18.398Z,47.33
2018-04-16T17:58:45.977Z,44.63
2018-04-16T18:01:13.562Z,42.60
2018-04-16T18:03:41.197Z,41.30
2018-04-16T18:06:08.790Z,40.07
2018-04-16T18:08:36.373Z,41.87
2018-04-16T18:11:03.952Z,46.63
2018-04-16T18:13:31.541Z,47.70
2018-04-16T18:15:59.137Z,51.83
2018-04-16T18:18:26.738Z,49.17
2018-04-16T18:20:55.154Z,49.77
2018-04-16T18:23:23.238Z,46.73
2018-04-16T18:25:50.874Z,46.70
2018-04-16T18:28:18.507Z,47.87
2018-04-16T18:30:46.169Z,48.77
2018-04-16T18:33:13.828Z,51.07
2018-04-16T18:35:41.501Z,49.10
2018-04-16T18:38:09.214Z,50.00
2018-04-16T18:40:36.801Z,47.60
2018-04-16T18:43:04.437Z,50.60
2018-04-16T18:45:32.033Z,47.97
2018-04-16T18:47:59.627Z,51.10
2018-04-16T18:50:27.238Z,52.10
2018-04-16T18:52:54.884Z,47.80
2018-04-16T18:55:23.264Z,43.87
2018-04-16T18:57:51.700Z,44.90
2018-04-16T19:00:20.228Z,41.53
2018-04-16T19:02:47.872Z,42.77
2018-04-16T19:05:15.474Z,39.93
2018-04-16T19:07:43.623Z,45.53
2018-04-16T19:10:11.563Z,46.13
2018-04-16T19:12:39.287Z,44.10
2018-04-16T19:15:06.879Z,44.37
2018-04-16T19:17:39.962Z,45.87
2018-04-16T19:20:07.627Z,45.50
2018-04-16T19:22:35.216Z,46.83
2018-04-16T19:25:02.910Z,44.70
2018-04-16T19:27:36.095Z,50.43
2018-04-16T19:30:03.714Z,47.83
2018-04-16T19:32:37.029Z,51.03
2018-04-16T19:35:08.429Z,52.03
2018-04-16T19:37:36.025Z,50.77
2018-04-16T19:40:03.654Z,48.20
2018-04-16T19:42:36.930Z,45.17
2018-04-16T19:45:05.566Z,48.90
2018-04-16T19:47:33.213Z,45.60
2018-04-16T19:50:06.451Z,47.07
2018-04-16T19:52:34.965Z,49.30
2018-04-16T19:55:02.661Z,45.40
2018-04-16T19:57:36.731Z,48.87
2018-04-16T20:00:05.216Z,49.30
2018-04-16T20:02:39.186Z,48.67
2018-04-16T20:05:07.505Z,43.53
2018-04-16T20:07:35.097Z,42.77
2018-04-16T20:10:02.867Z,49.67
2018-04-16T20:12:30.451Z,48.30
2018-04-16T20:14:58.071Z,48.80
2018-04-16T20:17:25.760Z,47.73
2018-04-16T20:19:53.358Z,46.90
2018-04-16T20:22:20.995Z,49.37
2018-04-16T20:24:48.713Z,47.07
2018-04-16T20:27:17.205Z,49.73
2018-04-16T20:29:44.788Z,49.67
2018-04-16T20:32:12.398Z,55.00
2018-04-16T20:34:40.065Z,51.10
2018-04-16T20:37:07.677Z,49.57
2018-04-16T20:39:37.322Z,53.27
2018-04-16T20:42:05.961Z,50.60
2018-04-16T20:44:34.609Z,51.17
2018-04-16T20:47:02.205Z,50.93
2018-04-16T20:49:29.919Z,50.87
2018-04-16T20:51:57.649Z,51.47
2018-04-16T20:54:25.242Z,51.80
2018-04-16T20:56:52.875Z,50.27
2018-04-16T20:59:20.465Z,50.13
2018-04-16T21:01:48.102Z,50.10
2018-04-16T21:04:15.719Z,51.00
2018-04-16T21:06:43.373Z,49.77
2018-04-16T21:09:11.018Z,48.50
2018-04-16T21:11:38.624Z,50.60
2018-04-16T21:14:06.305Z,48.77
2018-04-16T21:16:33.897Z,50.77
2018-04-16T21:19:01.485Z,52.00
2018-04-16T21:21:29.074Z,55.77
2018-04-16T21:23:56.671Z,53.23
2018-04-16T21:26:24.266Z,59.10
2018-04-16T21:28:51.894Z,56.60
2018-04-16T21:31:19.509Z,54.77
2018-04-16T21:33:47.102Z,52.77
2018-04-16T21:36:14.694Z,52.67
2018-04-16T21:38:42.279Z,45.03
2018-04-16T21:41:09.895Z,46.33
2018-04-16T21:43:37.478Z,46.93
2018-04-16T21:46:05.063Z,44.63
2018-04-16T21:48:32.681Z,45.70
2018-04-16T21:51:00.265Z,43.23
2018-04-16T21:53:27.855Z,43.57
2018-04-16T21:55:56.346Z,45.90
2018-04-16T21:58:24.718Z,45.17
2018-04-16T22:00:53.137Z,46.67
2018-04-16T22:03:20.731Z,47.53
2018-04-16T22:05:48.362Z,48.97
2018-04-16T22:08:16.637Z,48.50
2018-04-16T22:10:44.225Z,47.93
2018-04-16T22:13:11.809Z,46.67
2018-04-16T22:15:39.390Z,46.90
2018-04-16T22:18:07.813Z,48.40
2018-04-16T22:20:35.403Z,46.53
2018-04-16T22:23:02.985Z,46.07
2018-04-16T22:25:30.573Z,47.37
2018-04-16T22:27:59.070Z,49.43
2018-04-16T22:30:26.661Z,46.43
2018-04-16T22:32:54.244Z,48.60
2018-04-16T22:35:22.750Z,51.07
2018-04-16T22:37:50.334Z,46.30
2018-04-16T22:40:17.929Z,44.27
2018-04-16T22:42:45.514Z,46.33
2018-04-16T22:45:13.109Z,45.70
2018-04-16T22:47:40.688Z,47.73
2018-04-16T22:50:08.385Z,48.73
2018-04-16T22:52:36.005Z,46.60
2018-04-16T22:55:03.649Z,46.73
2018-04-16T22:57:32.008Z,46.10
2018-04-16T22:59:59.597Z,45.17
2018-04-16T23:02:27.189Z,46.60
2018-04-16T23:04:54.823Z,46.53
2018-04-16T23:07:23.224Z,49.43
2018-04-16T23:09:51.628Z,45.47
2018-04-16T23:12:19.234Z,49.57
2018-04-16T23:14:47.748Z,50.63
2018-04-16T23:17:16.216Z,49.53
2018-04-16T23:19:43.803Z,48.33
2018-04-16T23:22:11.399Z,46.10
2018-04-16T23:24:39.008Z,48.03
2018-04-16T23:27:06.680Z,52.13
2018-04-16T23:29:34.335Z,50.97
2018-04-16T23:32:01.925Z,50.07
2018-04-16T23:34:29.521Z,52.70
2018-04-16T23:36:57.163Z,51.87
2018-04-16T23:39:24.757Z,48.63
2018-04-16T23:41:52.359Z,48.43
2018-04-16T23:44:19.955Z,50.83
2018-04-16T23:46:47.572Z,51.27
2018-04-16T23:49:15.161Z,52.80
2018-04-16T23:51:42.760Z,52.23
2018-04-16T23:54:10.351Z,52.47
2018-04-16T23:56:38.008Z,50.00
2018-04-16T23:59:05.600Z,50.63
